Time;durP1;ratioP1;P1;durP2;ratioP2;P2;SDS_P1;SDS_P2;PMS_P1;PMS_P2;Temp;Humidity;BMP_temperature;BMP_pressure;BME280_temperature;BME280_humidity;BME280_pressure;Samples;Min_cycle;Max_cycle;Signal;HPM_P1;HPM_P2
2021/10/30 00:00:23;;;;;;;6.60;3.50;;;;;;;10.38;41.73;96918.75;115692;1197;32100;-81
2021/10/30 00:03:13;;;;;;;6.30;3.60;;;;;;;10.30;41.99;96916.02;115648;1197;30065;-81
2021/10/30 00:05:45;;;;;;;6.20;3.20;;;;;;;10.26;41.91;96915.38;115600;1197;28647;-82
2021/10/30 00:08:17;;;;;;;7.20;3.80;;;;;;;10.27;41.83;96912.51;115613;1197;28873;-82
2021/10/30 00:10:48;;;;;;;5.60;3.40;;;;;;;10.32;41.46;96909.88;115688;1192;27341;-82
2021/10/30 00:13:18;;;;;;;8.60;4.00;;;;;;;10.36;41.50;96912.88;115886;1197;28313;-82
2021/10/30 00:15:49;;;;;;;5.50;3.20;;;;;;;10.39;41.18;96914.83;115976;1198;25087;-82
2021/10/30 00:18:20;;;;;;;9.00;3.50;;;;;;;10.45;41.08;96915.94;115998;1197;22466;-82
2021/10/30 00:20:51;;;;;;;6.00;3.00;;;;;;;10.47;40.90;96923.77;115969;1197;22428;-82
2021/10/30 00:23:22;;;;;;;6.30;3.50;;;;;;;10.50;41.02;96926.30;115986;1197;25039;-82
2021/10/30 00:25:53;;;;;;;9.30;3.40;;;;;;;10.48;41.15;96932.94;115987;1198;24836;-82
2021/10/30 00:28:24;;;;;;;6.60;3.70;;;;;;;10.42;41.32;96930.68;115958;1198;22433;-82
2021/10/30 00:30:53;;;;;;;;;;;;;;;10.36;41.51;96931.52;115992;1197;22453;-83
2021/10/30 00:33:24;;;;;;;4.20;2.90;;;;;;;10.32;41.55;96930.76;115977;1198;22435;-81
2021/10/30 00:35:54;;;;;;;6.60;3.20;;;;;;;10.28;41.65;96939.51;115972;1198;22437;-83
2021/10/30 00:38:26;;;;;;;5.20;3.10;;;;;;;10.24;41.80;96942.98;115932;1198;22409;-82
2021/10/30 00:40:56;;;;;;;5.00;2.60;;;;;;;10.20;41.84;96933.02;115981;1198;22551;-82
2021/10/30 00:43:27;;;;;;;8.10;4.00;;;;;;;10.17;41.84;96930.59;115931;1191;24058;-82
2021/10/30 00:45:58;;;;;;;5.80;3.10;;;;;;;10.16;42.00;96930.27;115963;1192;22442;-82
2021/10/30 00:48:29;;;;;;;5.80;2.80;;;;;;;10.13;42.10;96928.02;115985;1197;22441;-81
2021/10/30 00:51:01;;;;;;;7.60;3.50;;;;;;;10.11;41.96;96924.27;115949;1197;25118;-82
2021/10/30 00:53:33;;;;;;;5.20;3.00;;;;;;;10.11;42.05;96924.90;115979;1197;22456;-82
2021/10/30 00:56:06;;;;;;;6.60;2.80;;;;;;;10.11;42.02;96924.59;115953;1198;22442;-82
2021/10/30 00:58:39;;;;;;;4.70;3.40;;;;;;;10.12;42.05;96916.70;115941;1197;22433;-81
2021/10/30 01:01:10;;;;;;;6.10;3.60;;;;;;;10.10;42.00;96910.40;115982;1197;22425;-81
2021/10/30 01:03:44;;;;;;;6.80;3.40;;;;;;;10.09;42.13;96907.27;115972;1197;22430;-81
2021/10/30 01:06:15;;;;;;;4.80;2.90;;;;;;;10.05;42.10;96908.51;115978;1197;22452;-82
2021/10/30 01:08:47;;;;;;;3.60;2.60;;;;;;;10.01;42.15;96902.10;115974;1198;22426;-82
2021/10/30 01:11:18;;;;;;;6.10;2.90;;;;;;;10.00;42.18;96900.48;115953;1198;22428;-82
2021/10/30 01:13:50;;;;;;;5.90;2.50;;;;;;;10.02;42.09;96900.31;115966;1197;22428;-82
2021/10/30 01:16:22;;;;;;;7.00;3.10;;;;;;;10.03;42.14;96895.75;115971;1197;22593;-83
2021/10/30 01:18:53;;;;;;;6.10;3.00;;;;;;;10.05;41.85;96887.21;115938;1197;22458;-81
2021/10/30 01:21:28;;;;;;;4.90;2.80;;;;;;;10.08;42.00;96884.86;115974;1197;22439;-81
2021/10/30 01:23:58;;;;;;;4.60;2.70;;;;;;;10.08;42.02;96883.86;115949;1197;22445;-82
2021/10/30 01:26:29;;;;;;;;;;;;;;;10.08;41.93;96881.90;115959;1197;22414;-82
2021/10/30 01:29:02;;;;;;;4.50;2.50;;;;;;;10.07;41.86;96879.79;115992;1198;22481;-82
2021/10/30 01:31:34;;;;;;;4.60;2.50;;;;;;;10.07;41.93;96877.93;115971;1197;22442;-82
2021/10/30 01:34:08;;;;;;;4.30;3.00;;;;;;;10.07;41.96;96877.83;115924;1197;22441;-82
2021/10/30 01:36:38;;;;;;;6.40;2.80;;;;;;;10.06;41.84;96874.06;115938;1198;22444;-81
2021/10/30 01:39:11;;;;;;;4.80;2.80;;;;;;;10.07;41.89;96873.95;115951;1197;22439;-81
2021/10/30 01:41:42;;;;;;;7.00;3.10;;;;;;;10.05;41.98;96877.56;115933;1198;23707;-83
2021/10/30 01:44:13;;;;;;;5.80;3.10;;;;;;;10.02;41.88;96869.79;115989;1197;22431;-82
2021/10/30 01:46:43;;;;;;;6.40;2.90;;;;;;;10.00;42.02;96868.52;115956;1198;25249;-82
2021/10/30 01:49:14;;;;;;;4.80;2.90;;;;;;;9.98;41.99;96868.45;115990;1197;24082;-82
2021/10/30 01:51:45;;;;;;;4.60;2.50;;;;;;;9.97;41.92;96859.61;115941;1198;22427;-82
2021/10/30 01:54:16;;;;;;;5.80;3.10;;;;;;;9.98;42.03;96861.62;115988;1197;25242;-82
2021/10/30 01:56:46;;;;;;;5.90;3.10;;;;;;;9.97;41.97;96856.13;115995;1197;22425;-83
2021/10/30 01:59:17;;;;;;;4.40;2.70;;;;;;;9.99;41.73;96851.83;116021;1197;22540;-81
2021/10/30 02:01:48;;;;;;;4.70;2.80;;;;;;;10.09;41.50;96844.81;115849;1198;22427;-83
2021/10/30 02:04:19;;;;;;;4.50;2.80;;;;;;;10.16;41.35;96843.96;115970;1197;22438;-82
2021/10/30 02:06:48;;;;;;;;;;;;;;;10.22;41.44;96848.67;115964;1198;22396;-81
2021/10/30 02:09:18;;;;;;;4.00;2.60;;;;;;;10.22;41.42;96847.52;115998;1198;24071;-82
2021/10/30 02:11:48;;;;;;;;;;;;;;;10.21;41.48;96844.73;115984;1197;22410;-82
2021/10/30 02:14:18;;;;;;;5.10;2.70;;;;;;;10.20;41.34;96848.55;115987;1197;22414;-82
2021/10/30 02:16:49;;;;;;;4.80;2.60;;;;;;;10.22;41.38;96846.13;115956;1197;22481;-82
2021/10/30 02:19:20;;;;;;;4.50;2.70;;;;;;;10.23;41.44;96842.05;115881;1184;22496;-83
2021/10/30 02:21:51;;;;;;;5.80;3.10;;;;;;;10.24;41.64;96842.20;115955;1190;22417;-82
2021/10/30 02:24:23;;;;;;;6.60;3.00;;;;;;;10.19;41.63;96843.73;115947;1198;22437;-81
2021/10/30 02:26:53;;;;;;;5.60;3.00;;;;;;;10.16;41.85;96844.33;115943;1198;22411;-82
2021/10/30 02:29:24;;;;;;;5.10;2.30;;;;;;;10.12;41.88;96839.92;115928;1198;22457;-82
2021/10/30 02:31:55;;;;;;;4.30;2.70;;;;;;;10.10;41.79;96837.49;115969;1197;25165;-81
2021/10/30 02:34:24;;;;;;;;;;;;;;;10.14;41.91;96834.11;115991;1197;22429;-82
2021/10/30 02:36:55;;;;;;;7.90;2.60;;;;;;;10.11;42.12;96840.83;115986;1197;22453;-81
2021/10/30 02:39:26;;;;;;;4.50;2.30;;;;;;;10.03;42.48;96840.29;115974;1197;24941;-82
2021/10/30 02:41:55;;;;;;;;;;;;;;;9.92;42.62;96836.16;115978;1198;22421;-82
2021/10/30 02:44:26;;;;;;;3.70;2.50;;;;;;;9.87;42.51;96838.36;115968;1197;22437;-82
2021/10/30 02:46:56;;;;;;;4.00;2.20;;;;;;;9.84;42.77;96836.22;115962;1197;25152;-82
2021/10/30 02:49:27;;;;;;;4.20;2.60;;;;;;;9.81;42.71;96831.41;115852;1198;26403;-82
2021/10/30 02:51:58;;;;;;;5.90;2.90;;;;;;;9.82;42.65;96829.18;115960;1198;22453;-82
2021/10/30 02:54:27;;;;;;;;;;;;;;;9.87;42.85;96830.73;115953;1198;22428;-82
2021/10/30 02:56:58;;;;;;;4.80;2.60;;;;;;;9.84;42.78;96828.75;115948;1198;22432;-82
2021/10/30 02:59:29;;;;;;;4.20;2.30;;;;;;;9.82;42.90;96834.48;115995;1197;27226;-81
2021/10/30 03:01:59;;;;;;;7.00;2.50;;;;;;;9.82;42.91;96836.97;115993;1190;22424;-82
2021/10/30 03:04:30;;;;;;;5.10;2.50;;;;;;;9.82;42.86;96832.52;115970;1198;23110;-82
2021/10/30 03:07:01;;;;;;;4.70;2.90;;;;;;;9.83;42.92;96834.85;115879;1184;22428;-82
2021/10/30 03:09:30;;;;;;;;;;;;;;;9.89;42.67;96834.42;115949;1198;23791;-82
2021/10/30 03:12:01;;;;;;;6.20;3.10;;;;;;;9.99;42.71;96837.32;115969;1198;22527;-82
2021/10/30 03:14:32;;;;;;;5.10;2.80;;;;;;;10.03;42.62;96842.41;115963;1198;23276;-81
2021/10/30 03:17:02;;;;;;;7.10;3.40;;;;;;;10.10;42.48;96844.70;115934;1198;22567;-82
2021/10/30 03:19:33;;;;;;;6.40;2.70;;;;;;;10.16;42.47;96844.48;115965;1198;22447;-82
2021/10/30 03:22:05;;;;;;;4.50;2.90;;;;;;;10.12;42.48;96848.09;115921;1198;22551;-81
2021/10/30 03:24:36;;;;;;;5.70;3.00;;;;;;;10.08;42.57;96844.87;115993;1190;24063;-82
2021/10/30 03:27:08;;;;;;;4.50;2.70;;;;;;;10.11;42.43;96845.06;115912;1198;22431;-82
2021/10/30 03:29:38;;;;;;;4.50;2.50;;;;;;;10.09;42.42;96850.68;115988;1198;23313;-82
2021/10/30 03:32:10;;;;;;;4.30;2.90;;;;;;;10.11;42.33;96847.92;115988;1197;22451;-82
2021/10/30 03:34:40;;;;;;;4.80;2.80;;;;;;;10.10;42.29;96847.09;115915;1198;22447;-82
2021/10/30 03:37:12;;;;;;;4.20;2.70;;;;;;;10.05;42.50;96846.63;115977;1198;22412;-83
2021/10/30 03:39:42;;;;;;;6.30;2.80;;;;;;;9.97;42.62;96842.14;115941;1190;22441;-83
2021/10/30 03:42:13;;;;;;;5.40;2.80;;;;;;;9.85;42.79;96841.26;115866;1198;22425;-82
2021/10/30 03:44:44;;;;;;;5.80;2.60;;;;;;;9.78;42.75;96835.71;115972;1190;25115;-82
2021/10/30 03:47:14;;;;;;;4.30;2.40;;;;;;;9.70;43.07;96834.86;115966;1197;24071;-83
2021/10/30 03:49:43;;;;;;;;;;;;;;;9.61;43.45;96835.95;115968;1197;22411;-81
2021/10/30 03:52:14;;;;;;;4.50;2.70;;;;;;;9.51;43.61;96831.49;115940;1197;22446;-82
2021/10/30 03:54:54;;;;;;;6.60;2.90;;;;;;;9.44;43.64;96830.52;115986;1198;22401;-82
2021/10/30 03:57:25;;;;;;;5.10;2.70;;;;;;;9.39;43.79;96832.77;115935;1198;22469;-82
2021/10/30 03:59:56;;;;;;;3.60;2.60;;;;;;;9.33;44.22;96835.73;115959;1197;22454;-83
2021/10/30 04:02:26;;;;;;;5.30;2.70;;;;;;;9.24;44.19;96832.29;116004;1198;22438;-82
2021/10/30 04:04:57;;;;;;;3.60;2.50;;;;;;;9.31;44.11;96836.59;115925;1190;25222;-82
2021/10/30 04:07:26;;;;;;;;;;;;;;;9.42;44.22;96829.39;115906;1198;22411;-82
2021/10/30 04:09:57;;;;;;;4.80;2.60;;;;;;;9.45;44.14;96829.08;115934;1198;22435;-82
2021/10/30 04:12:28;;;;;;;6.00;2.70;;;;;;;9.45;44.05;96829.98;115960;1197;22412;-82
2021/10/30 04:14:59;;;;;;;6.10;2.60;;;;;;;9.44;44.34;96827.01;115927;1197;25146;-82
2021/10/30 04:17:29;;;;;;;4.90;2.40;;;;;;;9.32;44.70;96828.11;115941;1197;22469;-82
2021/10/30 04:19:58;;;;;;;;;;;;;;;9.23;44.64;96831.34;115978;1198;22418;-82
2021/10/30 04:22:29;;;;;;;4.60;2.90;;;;;;;9.18;44.91;96826.27;115944;1198;22425;-81
2021/10/30 04:25:00;;;;;;;4.30;2.80;;;;;;;9.12;45.11;96819.26;115952;1197;22447;-82
2021/10/30 04:27:31;;;;;;;4.40;2.70;;;;;;;9.07;45.28;96820.11;115953;1198;22442;-81
2021/10/30 04:30:02;;;;;;;4.30;2.70;;;;;;;9.02;45.48;96819.89;116027;1197;22434;-82
2021/10/30 04:32:33;;;;;;;5.50;2.60;;;;;;;8.97;45.59;96818.97;115940;1198;22432;-82
2021/10/30 04:35:06;;;;;;;;;;;;;;;8.84;46.06;96813.04;115963;1196;22421;-82
2021/10/30 04:37:37;;;;;;;4.50;2.90;;;;;;;8.66;46.49;96812.58;116043;1198;22436;-82
2021/10/30 04:40:10;;;;;;;4.20;2.50;;;;;;;8.58;46.47;96810.74;115981;1197;25073;-82
2021/10/30 04:42:40;;;;;;;6.20;2.70;;;;;;;8.61;46.60;96816.42;115987;1197;23809;-81
2021/10/30 04:45:10;;;;;;;;;;;;;;;8.65;46.64;96812.52;116018;1197;23258;-82
2021/10/30 04:47:40;;;;;;;4.90;2.60;;;;;;;8.63;46.78;96813.57;115991;1190;22471;-82
2021/10/30 04:50:11;;;;;;;3.70;2.80;;;;;;;8.62;46.72;96814.73;115948;1197;22461;-81
2021/10/30 04:52:43;;;;;;;4.50;2.70;;;;;;;8.66;46.61;96808.45;115876;1199;22506;-81
2021/10/30 04:55:14;;;;;;;4.20;3.10;;;;;;;8.69;46.63;96806.97;115857;1199;22428;-82
2021/10/30 04:57:46;;;;;;;4.30;2.50;;;;;;;8.72;46.69;96804.44;115894;1193;22486;-82
2021/10/30 05:00:17;;;;;;;3.80;2.60;;;;;;;8.67;46.79;96800.68;115905;1199;22655;-82
2021/10/30 05:02:48;;;;;;;6.20;2.50;;;;;;;8.62;46.94;96797.88;115860;1199;24124;-81
2021/10/30 05:05:18;;;;;;;4.60;2.80;;;;;;;8.60;47.07;96797.72;115340;1198;30800;-81
2021/10/30 05:07:48;;;;;;;;;;;;;;;8.59;46.99;96802.63;115623;1198;26641;-82
2021/10/30 05:10:18;;;;;;;3.80;2.20;;;;;;;8.63;46.76;96796.24;115633;1198;26251;-83
2021/10/30 05:12:49;;;;;;;4.80;2.70;;;;;;;8.81;46.61;96788.88;115604;1198;26785;-81
2021/10/30 05:15:18;;;;;;;;;;;;;;;9.04;46.27;96789.79;115634;1198;27537;-82
2021/10/30 05:17:49;;;;;;;4.90;2.40;;;;;;;9.20;45.83;96793.77;115577;1198;25067;-81
2021/10/30 05:20:20;;;;;;;4.20;2.40;;;;;;;9.37;45.61;96800.06;115537;1198;26927;-81
2021/10/30 05:22:51;;;;;;;2.70;2.40;;;;;;;9.41;45.48;96797.89;115584;1198;28383;-82
2021/10/30 05:25:20;;;;;;;;;;;;;;;9.45;45.24;96794.63;115582;1192;35049;-82
2021/10/30 05:27:50;;;;;;;5.40;2.70;;;;;;;9.50;45.13;96788.47;115580;1198;30435;-81
2021/10/30 05:30:21;;;;;;;5.30;2.50;;;;;;;9.58;44.92;96788.04;115605;1198;30291;-81
2021/10/30 05:32:52;;;;;;;7.10;2.80;;;;;;;9.68;44.74;96787.07;115623;1198;26502;-81
2021/10/30 05:35:23;;;;;;;4.70;2.60;;;;;;;9.76;44.55;96783.52;115616;1198;26125;-82
2021/10/30 05:37:54;;;;;;;5.30;2.50;;;;;;;9.81;44.52;96782.86;115651;1198;25605;-81
2021/10/30 05:40:25;;;;;;;4.00;2.30;;;;;;;9.83;44.36;96782.58;115597;1198;31971;-81
2021/10/30 05:42:56;;;;;;;3.40;2.30;;;;;;;9.90;44.21;96785.23;115590;1198;42587;-83
2021/10/30 05:45:27;;;;;;;4.90;2.00;;;;;;;10.01;44.30;96785.45;115547;1198;33951;-82
2021/10/30 05:47:58;;;;;;;3.50;2.40;;;;;;;10.48;44.02;96784.81;115593;1198;39895;-82
2021/10/30 05:50:29;;;;;;;5.30;2.30;;;;;;;11.08;43.07;96786.16;115614;1197;30218;-80
2021/10/30 05:53:00;;;;;;;3.50;2.20;;;;;;;11.62;42.22;96790.33;115749;1197;28227;-82
2021/10/30 05:55:31;;;;;;;5.20;3.00;;;;;;;12.07;41.70;96793.67;115748;1196;29064;-83
2021/10/30 05:58:02;;;;;;;3.60;2.70;;;;;;;12.59;41.41;96802.03;115788;1197;25168;-82
2021/10/30 06:00:31;;;;;;;;;;;;;;;13.19;40.96;96808.34;115732;1196;27247;-83
2021/10/30 06:03:02;;;;;;;4.10;2.30;;;;;;;13.74;40.29;96814.27;115754;1190;36773;-82
2021/10/30 06:05:33;;;;;;;5.00;2.40;;;;;;;14.25;39.67;96813.08;115681;1197;29005;-82
2021/10/30 06:08:04;;;;;;;6.00;2.70;;;;;;;14.71;39.12;96804.55;115690;1197;28815;-81
2021/10/30 06:10:35;;;;;;;5.50;2.70;;;;;;;15.10;38.29;96804.45;115737;1197;29961;-82
2021/10/30 06:13:06;;;;;;;4.90;2.20;;;;;;;15.47;37.94;96801.50;115689;1196;29479;-82
2021/10/30 06:15:37;;;;;;;3.80;2.40;;;;;;;15.89;37.52;96798.68;115616;1196;32196;-81
2021/10/30 06:18:08;;;;;;;3.60;2.40;;;;;;;16.29;36.95;96800.66;115672;1196;30865;-82
2021/10/30 06:20:40;;;;;;;4.20;2.40;;;;;;;16.45;36.40;96793.02;115624;1197;30863;-81
2021/10/30 06:23:13;;;;;;;4.30;2.30;;;;;;;16.59;35.99;96801.96;115627;1196;30453;-82
2021/10/30 06:25:45;;;;;;;4.50;2.50;;;;;;;17.16;35.98;96808.15;115627;1198;33288;-82
2021/10/30 06:28:17;;;;;;;4.10;2.20;;;;;;;17.56;35.25;96805.77;115601;1196;29216;-82
2021/10/30 06:30:48;;;;;;;4.70;2.40;;;;;;;18.07;34.90;96804.08;115662;1197;32569;-82
2021/10/30 06:33:20;;;;;;;3.80;2.50;;;;;;;18.52;34.46;96798.96;115667;1197;63124;-83
2021/10/30 06:35:52;;;;;;;5.00;2.50;;;;;;;18.77;33.53;96795.52;115581;1198;31403;-82
2021/10/30 06:38:23;;;;;;;3.80;2.60;;;;;;;18.44;32.65;96796.49;115633;1190;31980;-82
2021/10/30 06:40:57;;;;;;;4.80;2.60;;;;;;;18.05;32.36;96790.27;115613;1197;40821;-83
2021/10/30 06:43:28;;;;;;;4.80;2.70;;;;;;;17.72;31.78;96789.00;115633;1197;29638;-82
2021/10/30 06:46:00;;;;;;;3.60;2.10;;;;;;;17.44;32.08;96792.85;115624;1190;26522;-81
2021/10/30 06:48:31;;;;;;;3.90;2.60;;;;;;;17.81;32.55;96789.58;115611;1197;27360;-82
2021/10/30 06:51:04;;;;;;;3.70;2.50;;;;;;;18.18;32.31;96788.19;115729;1197;36274;-82
2021/10/30 06:53:35;;;;;;;3.80;2.20;;;;;;;18.35;31.56;96790.33;115702;1197;27307;-82
2021/10/30 06:56:08;;;;;;;4.00;2.50;;;;;;;17.94;31.27;96799.77;115648;1197;47062;-81
2021/10/30 06:58:39;;;;;;;4.20;2.40;;;;;;;17.67;31.64;96794.65;115660;1197;25006;-82
2021/10/30 07:01:10;;;;;;;4.50;2.60;;;;;;;17.74;32.29;96798.42;115687;1196;37202;-82
2021/10/30 07:03:43;;;;;;;5.60;2.70;;;;;;;18.48;32.83;96793.02;115663;1197;32741;-81
2021/10/30 07:06:14;;;;;;;3.90;2.40;;;;;;;18.71;31.24;96793.97;115718;1196;30083;-81
2021/10/30 07:08:45;;;;;;;4.90;2.80;;;;;;;18.33;31.13;96798.86;115687;1197;29203;-82
2021/10/30 07:11:16;;;;;;;6.80;2.80;;;;;;;18.07;31.01;96793.88;115652;1191;27585;-82
2021/10/30 07:13:47;;;;;;;4.20;2.70;;;;;;;17.89;31.12;96797.98;115641;1184;25677;-81
2021/10/30 07:16:18;;;;;;;4.70;3.00;;;;;;;17.99;31.42;96796.09;115645;1197;28358;-83
2021/10/30 07:18:48;;;;;;;6.70;3.50;;;;;;;18.07;31.46;96795.22;115673;1197;30343;-83
2021/10/30 07:21:20;;;;;;;5.60;3.10;;;;;;;18.08;30.88;96802.05;115588;1198;28227;-82
2021/10/30 07:23:51;;;;;;;5.20;2.90;;;;;;;18.02;31.00;96797.77;115589;1196;26292;-82
2021/10/30 07:26:22;;;;;;;4.80;3.10;;;;;;;18.02;30.50;96799.36;115666;1196;31326;-82
2021/10/30 07:28:53;;;;;;;5.10;3.00;;;;;;;17.75;30.52;96799.06;115703;1196;27567;-82
2021/10/30 07:31:24;;;;;;;5.00;3.30;;;;;;;17.47;30.76;96798.33;115614;1197;29566;-83
2021/10/30 07:33:55;;;;;;;6.50;3.40;;;;;;;17.36;30.86;96786.21;115616;1190;27773;-82
2021/10/30 07:36:26;;;;;;;8.90;4.90;;;;;;;17.30;31.08;96774.38;115632;1197;28741;-83
2021/10/30 07:38:57;;;;;;;10.30;5.20;;;;;;;17.11;30.78;96780.08;115671;1197;27775;-83
2021/10/30 07:41:28;;;;;;;5.10;3.30;;;;;;;16.89;30.96;96785.96;115623;1196;27454;-82
2021/10/30 07:43:59;;;;;;;6.70;3.70;;;;;;;16.69;31.16;96782.59;115664;1197;26239;-83
2021/10/30 07:46:31;;;;;;;6.70;3.60;;;;;;;16.49;31.65;96783.80;115681;1196;26111;-82
2021/10/30 07:49:02;;;;;;;8.60;4.50;;;;;;;16.40;31.97;96793.87;115715;1197;26888;-83
2021/10/30 07:51:33;;;;;;;9.00;4.50;;;;;;;16.46;32.09;96801.91;115733;1190;25035;-82
2021/10/30 07:54:03;;;;;;;10.30;4.60;;;;;;;16.34;31.91;96800.91;115671;1197;25318;-82
2021/10/30 07:56:34;;;;;;;8.30;4.30;;;;;;;16.26;32.45;96803.30;115711;1197;31123;-82
2021/10/30 07:59:05;;;;;;;7.40;4.20;;;;;;;16.33;32.64;96808.42;115702;1198;25952;-81
2021/10/30 08:01:38;;;;;;;8.40;3.40;;;;;;;16.45;32.53;96805.09;115611;1198;32077;-81
2021/10/30 08:04:09;;;;;;;5.30;3.10;;;;;;;16.25;32.23;96808.27;115632;1198;26397;-81
2021/10/30 08:06:40;;;;;;;5.90;3.10;;;;;;;16.14;33.05;96811.35;115681;1197;24987;-82
2021/10/30 08:09:13;;;;;;;7.30;3.60;;;;;;;16.31;33.04;96810.18;115610;1198;25542;-81
2021/10/30 08:11:43;;;;;;;6.50;3.70;;;;;;;16.31;33.28;96821.62;115639;1197;26159;-82
2021/10/30 08:14:14;;;;;;;7.30;4.00;;;;;;;16.40;33.61;96826.04;115621;1197;27968;-82
2021/10/30 08:16:45;;;;;;;7.90;4.00;;;;;;;16.43;33.19;96828.06;115658;1197;24615;-82
2021/10/30 08:19:18;;;;;;;5.70;3.20;;;;;;;16.38;33.25;96830.86;115663;1198;27566;-81
2021/10/30 08:21:49;;;;;;;5.80;3.20;;;;;;;16.28;33.17;96830.39;115656;1190;32906;-82
2021/10/30 08:24:20;;;;;;;6.90;3.40;;;;;;;16.24;33.58;96831.38;115638;1197;29165;-82
2021/10/30 08:26:51;;;;;;;5.30;3.00;;;;;;;16.19;33.32;96836.73;115601;1197;30634;-82
2021/10/30 08:29:23;;;;;;;7.10;3.40;;;;;;;16.02;33.72;96833.63;115629;1197;30702;-83
2021/10/30 08:31:54;;;;;;;6.00;3.30;;;;;;;15.99;33.67;96832.48;115614;1197;29780;-82
2021/10/30 08:34:24;;;;;;;6.10;3.50;;;;;;;15.99;33.84;96826.60;115662;1197;29802;-82
2021/10/30 08:36:56;;;;;;;5.50;3.10;;;;;;;15.98;33.91;96832.19;115602;1197;37348;-82
2021/10/30 08:39:27;;;;;;;6.70;3.00;;;;;;;15.94;34.01;96836.33;115592;1190;38619;-82
2021/10/30 08:41:59;;;;;;;5.10;3.20;;;;;;;15.87;34.16;96834.09;115630;1197;28939;-83
2021/10/30 08:44:30;;;;;;;5.40;3.00;;;;;;;15.82;34.10;96832.56;115638;1197;28794;-83
2021/10/30 08:47:02;;;;;;;5.60;3.60;;;;;;;15.77;34.12;96841.45;115665;1197;27815;-82
2021/10/30 08:49:35;;;;;;;5.50;3.20;;;;;;;15.67;34.32;96835.29;115743;1192;26011;-82
2021/10/30 08:52:07;;;;;;;5.90;3.60;;;;;;;15.57;34.51;96834.39;115646;1190;26298;-80
2021/10/30 08:54:39;;;;;;;5.80;3.10;;;;;;;15.39;34.78;96833.68;115611;1192;28360;-81
2021/10/30 08:57:10;;;;;;;5.50;3.00;;;;;;;15.35;35.01;96838.44;115650;1197;29019;-82
2021/10/30 08:59:45;;;;;;;7.10;3.60;;;;;;;15.39;35.51;96837.67;115641;1197;27742;-81
2021/10/30 09:02:28;;;;;;;6.70;4.10;;;;;;;15.38;35.70;96832.68;115681;1197;28523;-82
2021/10/30 09:05:16;;;;;;;9.30;3.60;;;;;;;15.44;35.69;96827.99;115656;1197;26360;-82
2021/10/30 09:07:50;;;;;;;5.70;3.60;;;;;;;15.50;35.82;96824.61;115630;1197;28196;-82
2021/10/30 09:10:29;;;;;;;4.90;3.10;;;;;;;15.58;36.01;96820.24;115615;1198;35405;-82
2021/10/30 09:13:02;;;;;;;7.70;3.40;;;;;;;15.64;35.90;96822.02;115636;1197;42345;-83
2021/10/30 09:15:36;;;;;;;6.20;3.60;;;;;;;15.58;36.11;96821.67;115646;1197;37672;-83
2021/10/30 09:18:22;;;;;;;9.10;3.90;;;;;;;15.65;36.55;96820.26;115657;1197;49956;-81
2021/10/30 09:20:53;;;;;;;9.90;4.00;;;;;;;15.78;36.39;96825.17;115635;1197;28956;-83
2021/10/30 09:23:28;;;;;;;6.00;3.30;;;;;;;15.84;36.37;96823.54;115708;1196;38243;-83
2021/10/30 09:26:01;;;;;;;7.10;4.10;;;;;;;15.89;36.38;96820.77;115612;1197;32736;-82
2021/10/30 09:28:36;;;;;;;7.60;3.50;;;;;;;15.94;36.39;96822.77;115690;1197;42900;-83
2021/10/30 09:31:08;;;;;;;6.80;4.00;;;;;;;16.00;36.36;96815.18;115678;1196;26670;-81
2021/10/30 09:33:51;;;;;;;6.70;3.90;;;;;;;16.03;36.33;96818.08;115643;1197;27095;-81
2021/10/30 09:36:28;;;;;;;5.80;3.70;;;;;;;16.04;36.27;96815.34;115614;1197;29167;-84
2021/10/30 09:39:01;;;;;;;8.40;3.90;;;;;;;16.14;36.64;96813.77;115648;1197;30162;-82
2021/10/30 09:41:35;;;;;;;6.20;3.90;;;;;;;16.23;36.31;96813.90;115703;1197;29264;-82
2021/10/30 09:44:08;;;;;;;5.70;3.70;;;;;;;16.26;36.26;96814.98;115678;1197;29442;-82
2021/10/30 09:46:52;;;;;;;6.30;3.70;;;;;;;16.30;36.23;96817.85;115589;1197;39174;-82
2021/10/30 09:49:24;;;;;;;6.50;3.40;;;;;;;16.35;36.20;96813.25;115666;1193;32634;-82
2021/10/30 09:51:57;;;;;;;4.40;3.10;;;;;;;16.41;36.32;96812.04;115622;1197;31898;-82
2021/10/30 09:54:36;;;;;;;6.10;3.80;;;;;;;16.50;36.27;96815.92;115639;1190;34289;-82
2021/10/30 09:57:12;;;;;;;10.60;4.10;;;;;;;16.52;36.34;96812.98;115550;1190;36488;-81
2021/10/30 09:59:45;;;;;;;6.50;3.60;;;;;;;16.57;36.44;96808.73;115583;1197;30752;-82
2021/10/30 10:02:18;;;;;;;5.80;3.50;;;;;;;16.63;36.36;96811.91;115577;1192;31968;-82
2021/10/30 10:04:50;;;;;;;4.60;3.20;;;;;;;16.70;36.53;96804.07;115654;1197;27828;-82
2021/10/30 10:07:26;;;;;;;6.70;3.50;;;;;;;16.80;36.41;96807.76;115617;1196;28836;-82
2021/10/30 10:09:58;;;;;;;6.10;3.40;;;;;;;16.85;36.52;96804.54;115673;1196;30531;-83
2021/10/30 10:12:30;;;;;;;6.30;3.70;;;;;;;16.93;36.83;96796.77;115679;1196;28724;-83
2021/10/30 10:15:01;;;;;;;4.90;2.90;;;;;;;17.05;36.87;96797.48;115735;1197;50426;-83
2021/10/30 10:17:33;;;;;;;7.90;4.00;;;;;;;17.17;36.57;96799.80;115696;1197;41067;-83
2021/10/30 10:20:08;;;;;;;4.50;3.20;;;;;;;17.23;36.11;96802.86;115666;1197;43203;-83
2021/10/30 10:22:41;;;;;;;7.50;3.40;;;;;;;17.17;35.94;96799.45;115646;1197;29230;-82
2021/10/30 10:25:34;;;;;;;6.50;3.60;;;;;;;17.17;36.07;96803.27;115626;1197;30810;-82
2021/10/30 10:28:25;;;;;;;4.80;3.50;;;;;;;17.25;36.27;96796.96;115695;1197;28124;-82
2021/10/30 10:30:59;;;;;;;7.00;3.60;;;;;;;17.34;36.35;96791.39;115656;1197;29354;-82
2021/10/30 10:33:32;;;;;;;5.80;3.60;;;;;;;17.30;35.98;96790.30;115637;1197;44632;-82
2021/10/30 10:36:26;;;;;;;7.60;4.10;;;;;;;17.33;36.21;96786.78;115645;1198;45133;-83
2021/10/30 10:39:21;;;;;;;5.70;3.20;;;;;;;17.43;36.65;96791.46;115616;1197;29261;-83
2021/10/30 10:42:00;;;;;;;5.70;3.50;;;;;;;17.52;36.03;96785.11;115583;1198;29598;-82
2021/10/30 10:44:56;;;;;;;6.20;3.50;;;;;;;17.56;35.92;96778.77;115636;1197;29975;-82
2021/10/30 10:48:07;;;;;;;5.90;3.80;;;;;;;17.60;36.12;96780.01;115360;1197;47199;-83
2021/10/30 10:50:50;;;;;;;5.50;3.20;;;;;;;17.65;35.96;96771.49;115637;1190;27456;-82
2021/10/30 10:53:24;;;;;;;7.60;3.70;;;;;;;17.61;35.63;96773.64;115681;1197;32981;-83
2021/10/30 10:56:19;;;;;;;7.20;3.70;;;;;;;17.57;35.90;96768.56;115689;1196;27760;-82
2021/10/30 10:59:14;;;;;;;6.00;3.60;;;;;;;17.57;35.69;96768.88;115621;1192;30992;-83
2021/10/30 11:02:12;;;;;;;4.10;2.80;;;;;;;17.60;36.07;96766.98;115688;1190;27661;-82
2021/10/30 11:04:42;;;;;;;6.50;3.60;;;;;;;17.72;35.78;96760.27;115653;1197;31578;-82
2021/10/30 11:07:19;;;;;;;5.80;3.20;;;;;;;17.76;35.46;96755.77;115636;1197;28517;-82
2021/10/30 11:10:01;;;;;;;4.40;2.60;;;;;;;17.77;35.56;96754.59;115652;1197;27238;-82
2021/10/30 11:12:32;;;;;;;4.20;3.10;;;;;;;17.82;35.75;96755.76;115718;1197;28941;-82
2021/10/30 11:15:16;;;;;;;7.50;3.50;;;;;;;17.84;35.63;96747.17;115623;1197;32044;-83
2021/10/30 11:17:51;;;;;;;5.80;3.20;;;;;;;17.88;35.84;96748.73;115607;1197;25932;-83
2021/10/30 11:20:34;;;;;;;4.90;3.10;;;;;;;17.95;36.04;96741.27;115636;1198;27072;-82
2021/10/30 11:23:17;;;;;;;5.30;3.20;;;;;;;18.01;35.98;96736.46;115727;1198;28254;-82
2021/10/30 11:25:52;;;;;;;6.30;2.90;;;;;;;17.99;35.64;96734.16;115604;1197;43440;-84
2021/10/30 11:28:26;;;;;;;6.00;3.30;;;;;;;18.00;35.75;96727.88;115617;1197;31165;-83
2021/10/30 11:30:57;;;;;;;6.70;3.40;;;;;;;18.07;36.04;96731.05;115641;1197;30991;-83
2021/10/30 11:33:27;;;;;;;;;;;;;;;18.12;35.95;96734.05;115599;1197;29981;-83
2021/10/30 11:36:04;;;;;;;7.80;3.60;;;;;;;18.12;35.77;96734.11;115595;1198;45638;-83
2021/10/30 11:38:37;;;;;;;4.20;3.10;;;;;;;18.06;35.77;96734.84;115640;1197;28932;-83
2021/10/30 11:41:10;;;;;;;6.40;3.20;;;;;;;18.03;35.67;96736.62;115574;1197;35554;-83
2021/10/30 11:43:42;;;;;;;7.40;3.70;;;;;;;17.99;35.77;96727.70;115644;1197;31345;-83
2021/10/30 11:46:16;;;;;;;6.10;3.10;;;;;;;18.02;36.07;96729.21;115618;1197;30532;-83
2021/10/30 11:48:55;;;;;;;5.40;3.10;;;;;;;18.05;35.81;96726.66;115609;1197;44125;-83
2021/10/30 11:51:41;;;;;;;4.50;2.80;;;;;;;18.11;35.91;96724.90;115624;1198;31057;-83
2021/10/30 11:54:16;;;;;;;4.40;2.80;;;;;;;18.18;35.80;96722.58;115638;1198;29406;-82
2021/10/30 11:56:49;;;;;;;6.20;3.10;;;;;;;18.22;35.75;96712.91;115623;1198;30449;-84